sensor_id;sensor_type;location;lat;lon;timestamp;pressure;altitude;pressure_sealevel;temperature
76347;BMP280;73309;48.818;9.806;2023-12-22T00:00:10;94970.47;;;8.23
76347;BMP280;73309;48.818;9.806;2023-12-22T00:02:35;94971.75;;;8.22
76347;BMP280;73309;48.818;9.806;2023-12-22T00:05:00;94964.63;;;8.21
76347;BMP280;73309;48.818;9.806;2023-12-22T00:07:26;94975.84;;;8.21
76347;BMP280;73309;48.818;9.806;2023-12-22T00:09:51;94961.03;;;8.20
76347;BMP280;73309;48.818;9.806;2023-12-22T00:12:17;94973.03;;;8.21
76347;BMP280;73309;48.818;9.806;2023-12-22T00:14:43;94957.97;;;8.18
76347;BMP280;73309;48.818;9.806;2023-12-22T00:17:09;94924.41;;;7.96
76347;BMP280;73309;48.818;9.806;2023-12-22T00:19:35;94961.53;;;8.19
76347;BMP280;73309;48.818;9.806;2023-12-22T00:22:00;94964.31;;;8.19
76347;BMP280;73309;48.818;9.806;2023-12-22T00:24:25;94973.28;;;8.17
76347;BMP280;73309;48.818;9.806;2023-12-22T00:26:51;94978.91;;;8.17
76347;BMP280;73309;48.818;9.806;2023-12-22T00:29:16;94977.41;;;8.16
76347;BMP280;73309;48.818;9.806;2023-12-22T00:31:43;95006.22;;;8.17
76347;BMP280;73309;48.818;9.806;2023-12-22T00:34:08;94998.56;;;8.17
76347;BMP280;73309;48.818;9.806;2023-12-22T00:36:34;94992.97;;;8.17
76347;BMP280;73309;48.818;9.806;2023-12-22T00:38:59;94979.44;;;8.10
76347;BMP280;73309;48.818;9.806;2023-12-22T00:41:24;94990.91;;;8.18
76347;BMP280;73309;48.818;9.806;2023-12-22T00:43:50;94999.09;;;8.16
76347;BMP280;73309;48.818;9.806;2023-12-22T00:46:15;95012.13;;;8.13
76347;BMP280;73309;48.818;9.806;2023-12-22T00:48:42;94979.59;;;7.88
76347;BMP280;73309;48.818;9.806;2023-12-22T00:51:08;95012.13;;;8.13
76347;BMP280;73309;48.818;9.806;2023-12-22T00:53:33;95037.41;;;8.13
76347;BMP280;73309;48.818;9.806;2023-12-22T00:55:59;95043.31;;;8.04
76347;BMP280;73309;48.818;9.806;2023-12-22T00:58:25;95062.94;;;8.10
76347;BMP280;73309;48.818;9.806;2023-12-22T01:00:50;95049.75;;;7.94
76347;BMP280;73309;48.818;9.806;2023-12-22T01:03:15;95083.41;;;8.05
76347;BMP280;73309;48.818;9.806;2023-12-22T01:05:42;95073.72;;;8.00
76347;BMP280;73309;48.818;9.806;2023-12-22T01:08:08;95070.66;;;7.98
76347;BMP280;73309;48.818;9.806;2023-12-22T01:10:33;95063.28;;;7.95
76347;BMP280;73309;48.818;9.806;2023-12-22T01:12:58;95053.06;;;7.92
76347;BMP280;73309;48.818;9.806;2023-12-22T01:15:24;95040.31;;;7.91
76347;BMP280;73309;48.818;9.806;2023-12-22T01:17:49;95007.66;;;7.88
76347;BMP280;73309;48.818;9.806;2023-12-22T01:20:15;95015.81;;;7.86
76347;BMP280;73309;48.818;9.806;2023-12-22T01:22:41;95022.47;;;7.83
76347;BMP280;73309;48.818;9.806;2023-12-22T01:25:07;95027.84;;;7.81
76347;BMP280;73309;48.818;9.806;2023-12-22T01:27:32;95022.75;;;7.80
76347;BMP280;73309;48.818;9.806;2023-12-22T01:29:58;95012.53;;;7.77
76347;BMP280;73309;48.818;9.806;2023-12-22T01:32:23;95016.13;;;7.72
76347;BMP280;73309;48.818;9.806;2023-12-22T01:34:48;95016.91;;;7.72
76347;BMP280;73309;48.818;9.806;2023-12-22T01:37:14;95015.13;;;7.69
76347;BMP280;73309;48.818;9.806;2023-12-22T01:39:41;94997.06;;;7.59
76347;BMP280;73309;48.818;9.806;2023-12-22T01:42:06;95006.97;;;7.66
76347;BMP280;73309;48.818;9.806;2023-12-22T01:44:31;94995.78;;;7.55
76347;BMP280;73309;48.818;9.806;2023-12-22T01:46:57;95011.84;;;7.60
76347;BMP280;73309;48.818;9.806;2023-12-22T01:49:23;95008.28;;;7.59
76347;BMP280;73309;48.818;9.806;2023-12-22T01:51:49;95008.75;;;7.63
76347;BMP280;73309;48.818;9.806;2023-12-22T01:54:15;94999.09;;;7.59
76347;BMP280;73309;48.818;9.806;2023-12-22T01:56:42;95016.72;;;7.59
76347;BMP280;73309;48.818;9.806;2023-12-22T01:59:08;95010.09;;;7.57
76347;BMP280;73309;48.818;9.806;2023-12-22T02:01:34;95010.84;;;7.57
76347;BMP280;73309;48.818;9.806;2023-12-22T02:04:00;95012.13;;;7.56
76347;BMP280;73309;48.818;9.806;2023-12-22T02:06:28;95016.72;;;7.54
76347;BMP280;73309;48.818;9.806;2023-12-22T02:08:55;95002.19;;;7.55
76347;BMP280;73309;48.818;9.806;2023-12-22T02:11:20;94937.75;;;7.22
76347;BMP280;73309;48.818;9.806;2023-12-22T02:13:47;94984.56;;;7.55
76347;BMP280;73309;48.818;9.806;2023-12-22T02:16:22;94983.81;;;7.54
76347;BMP280;73309;48.818;9.806;2023-12-22T02:18:52;94976.69;;;7.48
76347;BMP280;73309;48.818;9.806;2023-12-22T02:21:20;95001.16;;;7.53
76347;BMP280;73309;48.818;9.806;2023-12-22T02:23:48;94992.25;;;7.54
76347;BMP280;73309;48.818;9.806;2023-12-22T02:26:27;94980.75;;;7.52
76347;BMP280;73309;48.818;9.806;2023-12-22T02:28:55;94982.03;;;7.51
76347;BMP280;73309;48.818;9.806;2023-12-22T02:31:28;94982.03;;;7.51
76347;BMP280;73309;48.818;9.806;2023-12-22T02:33:58;94986.34;;;7.52
76347;BMP280;73309;48.818;9.806;2023-12-22T02:36:25;94987.63;;;7.51
76347;BMP280;73309;48.818;9.806;2023-12-22T02:38:53;95021.06;;;7.49
76347;BMP280;73309;48.818;9.806;2023-12-22T02:41:20;95023.59;;;7.53
76347;BMP280;73309;48.818;9.806;2023-12-22T02:43:46;95024.34;;;7.53
76347;BMP280;73309;48.818;9.806;2023-12-22T02:46:14;95015.19;;;7.53
76347;BMP280;73309;48.818;9.806;2023-12-22T02:48:39;95013.91;;;7.54
76347;BMP280;73309;48.818;9.806;2023-12-22T02:51:05;95002.69;;;7.54
76347;BMP280;73309;48.818;9.806;2023-12-22T02:53:31;94995.78;;;7.55
76347;BMP280;73309;48.818;9.806;2023-12-22T02:55:57;94984.88;;;7.46
76347;BMP280;73309;48.818;9.806;2023-12-22T02:58:23;94998.09;;;7.56
76347;BMP280;73309;48.818;9.806;2023-12-22T03:00:48;94994.00;;;7.57
76347;BMP280;73309;48.818;9.806;2023-12-22T03:03:13;94984.84;;;7.57
76347;BMP280;73309;48.818;9.806;2023-12-22T03:05:39;94963.69;;;7.45
76347;BMP280;73309;48.818;9.806;2023-12-22T03:08:05;95000.38;;;7.58
76347;BMP280;73309;48.818;9.806;2023-12-22T03:10:30;94996.06;;;7.57
76347;BMP280;73309;48.818;9.806;2023-12-22T03:12:57;94997.81;;;7.60
76347;BMP280;73309;48.818;9.806;2023-12-22T03:15:22;95003.66;;;7.62
76347;BMP280;73309;48.818;9.806;2023-12-22T03:17:48;95005.72;;;7.61
76347;BMP280;73309;48.818;9.806;2023-12-22T03:20:13;95003.44;;;7.60
76347;BMP280;73309;48.818;9.806;2023-12-22T03:22:38;95002.91;;;7.61
76347;BMP280;73309;48.818;9.806;2023-12-22T03:25:05;94973.34;;;7.60
76347;BMP280;73309;48.818;9.806;2023-12-22T03:27:30;94983.03;;;7.59
76347;BMP280;73309;48.818;9.806;2023-12-22T03:29:57;94970.75;;;7.62
76347;BMP280;73309;48.818;9.806;2023-12-22T03:32:22;94973.56;;;7.62
76347;BMP280;73309;48.818;9.806;2023-12-22T03:34:48;94962.34;;;7.62
76347;BMP280;73309;48.818;9.806;2023-12-22T03:37:13;94967.97;;;7.62
76347;BMP280;73309;48.818;9.806;2023-12-22T03:39:38;94975.09;;;7.63
76347;BMP280;73309;48.818;9.806;2023-12-22T03:42:04;94975.88;;;7.64
76347;BMP280;73309;48.818;9.806;2023-12-22T03:44:29;94979.69;;;7.61
76347;BMP280;73309;48.818;9.806;2023-12-22T03:46:56;94990.66;;;7.64
76347;BMP280;73309;48.818;9.806;2023-12-22T03:49:21;94970.75;;;7.62
76347;BMP280;73309;48.818;9.806;2023-12-22T03:51:47;94984.03;;;7.62
76347;BMP280;73309;48.818;9.806;2023-12-22T03:54:12;94970.81;;;7.51
76347;BMP280;73309;48.818;9.806;2023-12-22T03:56:37;94991.19;;;7.57
76347;BMP280;73309;48.818;9.806;2023-12-22T03:59:03;94996.81;;;7.57
76347;BMP280;73309;48.818;9.806;2023-12-22T04:01:28;94998.06;;;7.62
76347;BMP280;73309;48.818;9.806;2023-12-22T04:03:55;95009.81;;;7.60
76347;BMP280;73309;48.818;9.806;2023-12-22T04:06:20;94993.44;;;7.64
76347;BMP280;73309;48.818;9.806;2023-12-22T04:08:46;95005.69;;;7.67
76347;BMP280;73309;48.818;9.806;2023-12-22T04:11:11;95003.91;;;7.69
76347;BMP280;73309;48.818;9.806;2023-12-22T04:13:36;95005.22;;;7.63
76347;BMP280;73309;48.818;9.806;2023-12-22T04:16:02;95019.75;;;7.61
76347;BMP280;73309;48.818;9.806;2023-12-22T04:18:28;95022.06;;;7.57
76347;BMP280;73309;48.818;9.806;2023-12-22T04:20:54;95015.44;;;7.60
76347;BMP280;73309;48.818;9.806;2023-12-22T04:23:20;95025.09;;;7.65
76347;BMP280;73309;48.818;9.806;2023-12-22T04:25:45;95015.13;;;7.69
76347;BMP280;73309;48.818;9.806;2023-12-22T04:28:10;95011.81;;;7.71
76347;BMP280;73309;48.818;9.806;2023-12-22T04:30:36;95024.31;;;7.64
76347;BMP280;73309;48.818;9.806;2023-12-22T04:33:01;95016.16;;;7.66
76347;BMP280;73309;48.818;9.806;2023-12-22T04:35:27;95033.47;;;7.70
76347;BMP280;73309;48.818;9.806;2023-12-22T04:37:53;95022.53;;;7.67
76347;BMP280;73309;48.818;9.806;2023-12-22T04:40:19;95048.56;;;7.67
76347;BMP280;73309;48.818;9.806;2023-12-22T04:42:44;95045.00;;;7.61
76347;BMP280;73309;48.818;9.806;2023-12-22T04:45:10;95040.94;;;7.51
76347;BMP280;73309;48.818;9.806;2023-12-22T04:47:35;95048.31;;;7.60
76347;BMP280;73309;48.818;9.806;2023-12-22T04:50:00;95038.63;;;7.66
76347;BMP280;73309;48.818;9.806;2023-12-22T04:52:26;95069.22;;;7.70
76347;BMP280;73309;48.818;9.806;2023-12-22T04:54:53;95068.97;;;7.73
76347;BMP280;73309;48.818;9.806;2023-12-22T04:57:18;95042.41;;;7.74
76347;BMP280;73309;48.818;9.806;2023-12-22T04:59:43;95045.22;;;7.74
76347;BMP280;73309;48.818;9.806;2023-12-22T05:02:09;95035.06;;;7.60
76347;BMP280;73309;48.818;9.806;2023-12-22T05:04:34;95063.84;;;7.72
76347;BMP280;73309;48.818;9.806;2023-12-22T05:06:59;95059.00;;;7.72
76347;BMP280;73309;48.818;9.806;2023-12-22T05:09:25;95048.50;;;7.84
76347;BMP280;73309;48.818;9.806;2023-12-22T05:11:52;95053.09;;;7.81
76347;BMP280;73309;48.818;9.806;2023-12-22T05:14:17;94967.84;;;7.22
76347;BMP280;73309;48.818;9.806;2023-12-22T05:16:42;95050.84;;;7.74
76347;BMP280;73309;48.818;9.806;2023-12-22T05:19:08;95073.06;;;7.72
76347;BMP280;73309;48.818;9.806;2023-12-22T05:21:33;95063.84;;;7.72
76347;BMP280;73309;48.818;9.806;2023-12-22T05:23:58;95033.31;;;7.52
76347;BMP280;73309;48.818;9.806;2023-12-22T05:26:24;95071.25;;;7.69
76347;BMP280;73309;48.818;9.806;2023-12-22T05:28:51;95048.84;;;7.58
76347;BMP280;73309;48.818;9.806;2023-12-22T05:31:16;95071.03;;;7.67
76347;BMP280;73309;48.818;9.806;2023-12-22T05:33:42;95084.53;;;7.69
76347;BMP280;73309;48.818;9.806;2023-12-22T05:36:08;95081.75;;;7.69
76347;BMP280;73309;48.818;9.806;2023-12-22T05:38:37;95085.06;;;7.67
76347;BMP280;73309;48.818;9.806;2023-12-22T05:41:02;95071.78;;;7.68
76347;BMP280;73309;48.818;9.806;2023-12-22T05:43:28;95107.00;;;7.69
76347;BMP280;73309;48.818;9.806;2023-12-22T05:45:54;95102.66;;;7.68
76347;BMP280;73309;48.818;9.806;2023-12-22T05:48:20;95089.38;;;7.68
76347;BMP280;73309;48.818;9.806;2023-12-22T05:50:45;95106.22;;;7.68
76347;BMP280;73309;48.818;9.806;2023-12-22T05:53:11;95087.34;;;7.69
76347;BMP280;73309;48.818;9.806;2023-12-22T05:55:36;95099.31;;;7.69
76347;BMP280;73309;48.818;9.806;2023-12-22T05:58:05;95104.94;;;7.69
76347;BMP280;73309;48.818;9.806;2023-12-22T06:00:30;95091.44;;;7.68
76347;BMP280;73309;48.818;9.806;2023-12-22T06:02:57;95098.31;;;7.67
76347;BMP280;73309;48.818;9.806;2023-12-22T06:05:23;95118.22;;;7.69
76347;BMP280;73309;48.818;9.806;2023-12-22T06:07:48;95115.41;;;7.63
76347;BMP280;73309;48.818;9.806;2023-12-22T06:10:14;95117.72;;;7.65
76347;BMP280;73309;48.818;9.806;2023-12-22T06:12:39;95090.44;;;7.65
76347;BMP280;73309;48.818;9.806;2023-12-22T06:15:05;95095.78;;;7.69
76347;BMP280;73309;48.818;9.806;2023-12-22T06:17:31;95075.84;;;7.67
76347;BMP280;73309;48.818;9.806;2023-12-22T06:19:58;95082.75;;;7.66
76347;BMP280;73309;48.818;9.806;2023-12-22T06:22:23;95063.88;;;7.66
76347;BMP280;73309;48.818;9.806;2023-12-22T06:24:48;95120.00;;;7.66
76347;BMP280;73309;48.818;9.806;2023-12-22T06:27:14;95107.25;;;7.65
76347;BMP280;73309;48.818;9.806;2023-12-22T06:29:39;95107.25;;;7.65
76347;BMP280;73309;48.818;9.806;2023-12-22T06:32:05;95109.28;;;7.65
76347;BMP280;73309;48.818;9.806;2023-12-22T06:34:30;95130.97;;;7.64
76347;BMP280;73309;48.818;9.806;2023-12-22T06:36:57;95124.59;;;7.64
76347;BMP280;73309;48.818;9.806;2023-12-22T06:39:22;95120.28;;;7.63
76347;BMP280;73309;48.818;9.806;2023-12-22T06:41:48;95146.78;;;7.62
76347;BMP280;73309;48.818;9.806;2023-12-22T06:44:13;95130.72;;;7.62
76347;BMP280;73309;48.818;9.806;2023-12-22T06:46:39;95132.75;;;7.62
76347;BMP280;73309;48.818;9.806;2023-12-22T06:49:04;95163.63;;;7.62
76347;BMP280;73309;48.818;9.806;2023-12-22T06:51:30;95167.47;;;7.64
76347;BMP280;73309;48.818;9.806;2023-12-22T06:53:58;95181.25;;;7.62
76347;BMP280;73309;48.818;9.806;2023-12-22T06:56:24;95185.84;;;7.65
76347;BMP280;73309;48.818;9.806;2023-12-22T06:58:51;95148.09;;;7.44
76347;BMP280;73309;48.818;9.806;2023-12-22T07:01:20;95197.06;;;7.65
76347;BMP280;73309;48.818;9.806;2023-12-22T07:03:46;95196.81;;;7.63
76347;BMP280;73309;48.818;9.806;2023-12-22T07:06:11;95167.72;;;7.55
76347;BMP280;73309;48.818;9.806;2023-12-22T07:08:36;95180.97;;;7.66
76347;BMP280;73309;48.818;9.806;2023-12-22T07:11:03;95191.94;;;7.58
76347;BMP280;73309;48.818;9.806;2023-12-22T07:13:29;95188.38;;;7.63
76347;BMP280;73309;48.818;9.806;2023-12-22T07:15:54;95178.44;;;7.62
76347;BMP280;73309;48.818;9.806;2023-12-22T07:18:19;95183.28;;;7.62
76347;BMP280;73309;48.818;9.806;2023-12-22T07:20:45;95195.53;;;7.64
76347;BMP280;73309;48.818;9.806;2023-12-22T07:23:10;95185.56;;;7.63
76347;BMP280;73309;48.818;9.806;2023-12-22T07:25:36;95174.88;;;7.56
76347;BMP280;73309;48.818;9.806;2023-12-22T07:28:04;95182.00;;;7.57
76347;BMP280;73309;48.818;9.806;2023-12-22T07:30:29;95213.16;;;7.59
76347;BMP280;73309;48.818;9.806;2023-12-22T07:32:55;95224.63;;;7.61
76347;BMP280;73309;48.818;9.806;2023-12-22T07:35:20;95153.94;;;7.02
76347;BMP280;73309;48.818;9.806;2023-12-22T07:37:45;95224.09;;;7.57
76347;BMP280;73309;48.818;9.806;2023-12-22T07:40:11;95205.75;;;7.67
76347;BMP280;73309;48.818;9.806;2023-12-22T07:42:37;95210.59;;;7.72
76347;BMP280;73309;48.818;9.806;2023-12-22T07:45:05;95228.72;;;7.71
76347;BMP280;73309;48.818;9.806;2023-12-22T07:47:31;95220.00;;;7.80
76347;BMP280;73309;48.818;9.806;2023-12-22T07:49:56;95227.44;;;7.83
76347;BMP280;73309;48.818;9.806;2023-12-22T07:52:22;95240.69;;;7.77
76347;BMP280;73309;48.818;9.806;2023-12-22T07:54:47;95245.28;;;7.80
76347;BMP280;73309;48.818;9.806;2023-12-22T07:57:12;95260.84;;;7.81
76347;BMP280;73309;48.818;9.806;2023-12-22T07:59:38;95264.41;;;7.87
76347;BMP280;73309;48.818;9.806;2023-12-22T08:02:04;95276.69;;;7.84
76347;BMP280;73309;48.818;9.806;2023-12-22T08:04:30;95270.03;;;7.87
76347;BMP280;73309;48.818;9.806;2023-12-22T08:06:57;95281.53;;;7.84
76347;BMP280;73309;48.818;9.806;2023-12-22T08:09:23;95284.59;;;7.91
76347;BMP280;73309;48.818;9.806;2023-12-22T08:11:48;95290.72;;;7.90
76347;BMP280;73309;48.818;9.806;2023-12-22T08:14:14;95291.72;;;7.92
76347;BMP280;73309;48.818;9.806;2023-12-22T08:16:39;95285.09;;;7.95
76347;BMP280;73309;48.818;9.806;2023-12-22T08:19:06;95261.34;;;7.85
76347;BMP280;73309;48.818;9.806;2023-12-22T08:21:31;95275.63;;;7.98
76347;BMP280;73309;48.818;9.806;2023-12-22T08:23:57;95269.75;;;8.02
76347;BMP280;73309;48.818;9.806;2023-12-22T08:26:23;95281.78;;;8.02
76347;BMP280;73309;48.818;9.806;2023-12-22T08:28:49;95284.34;;;7.89
76347;BMP280;73309;48.818;9.806;2023-12-22T08:31:14;95266.97;;;7.96
76347;BMP280;73309;48.818;9.806;2023-12-22T08:33:39;95263.66;;;7.98
76347;BMP280;73309;48.818;9.806;2023-12-22T08:36:06;95263.66;;;7.92
76347;BMP280;73309;48.818;9.806;2023-12-22T08:38:32;95273.84;;;7.79
76347;BMP280;73309;48.818;9.806;2023-12-22T08:40:57;95304.50;;;7.77
76347;BMP280;73309;48.818;9.806;2023-12-22T08:43:23;95289.69;;;7.82
76347;BMP280;73309;48.818;9.806;2023-12-22T08:45:48;95299.66;;;7.83
76347;BMP280;73309;48.818;9.806;2023-12-22T08:48:13;95295.06;;;7.85
76347;BMP280;73309;48.818;9.806;2023-12-22T08:50:39;95270.03;;;7.87
76347;BMP280;73309;48.818;9.806;2023-12-22T08:53:05;95285.09;;;8.01
76347;BMP280;73309;48.818;9.806;2023-12-22T08:55:31;95289.19;;;8.05
76347;BMP280;73309;48.818;9.806;2023-12-22T08:57:56;95295.06;;;8.07
76347;BMP280;73309;48.818;9.806;2023-12-22T09:00:22;95300.66;;;8.07
76347;BMP280;73309;48.818;9.806;2023-12-22T09:02:47;95287.38;;;8.02
76347;BMP280;73309;48.818;9.806;2023-12-22T09:05:12;95277.69;;;8.14
76347;BMP280;73309;48.818;9.806;2023-12-22T09:07:38;95277.69;;;8.14
76347;BMP280;73309;48.818;9.806;2023-12-22T09:10:06;95257.25;;;8.08
76347;BMP280;73309;48.818;9.806;2023-12-22T09:12:31;95210.56;;;7.67
76347;BMP280;73309;48.818;9.806;2023-12-22T09:14:56;95276.94;;;8.14
76347;BMP280;73309;48.818;9.806;2023-12-22T09:17:22;95278.97;;;8.13
76347;BMP280;73309;48.818;9.806;2023-12-22T09:19:47;95269.25;;;8.14
76347;BMP280;73309;48.818;9.806;2023-12-22T09:22:13;95268.22;;;8.12
76347;BMP280;73309;48.818;9.806;2023-12-22T09:24:38;95273.34;;;8.13
76347;BMP280;73309;48.818;9.806;2023-12-22T09:27:05;95281.75;;;8.13
76347;BMP280;73309;48.818;9.806;2023-12-22T09:29:30;95301.94;;;8.12
76347;BMP280;73309;48.818;9.806;2023-12-22T09:31:56;95298.38;;;8.11
76347;BMP280;73309;48.818;9.806;2023-12-22T09:34:21;95302.19;;;7.97
76347;BMP280;73309;48.818;9.806;2023-12-22T09:36:46;95315.50;;;8.08
76347;BMP280;73309;48.818;9.806;2023-12-22T09:39:12;95327.50;;;8.03
76347;BMP280;73309;48.818;9.806;2023-12-22T09:41:37;95319.81;;;8.14
76347;BMP280;73309;48.818;9.806;2023-12-22T09:44:05;95316.00;;;8.17
76347;BMP280;73309;48.818;9.806;2023-12-22T09:46:31;95340.00;;;8.24
76347;BMP280;73309;48.818;9.806;2023-12-22T09:48:56;95315.50;;;8.24
76347;BMP280;73309;48.818;9.806;2023-12-22T09:51:22;95306.28;;;8.24
76347;BMP280;73309;48.818;9.806;2023-12-22T09:53:49;95307.56;;;8.23
76347;BMP280;73309;48.818;9.806;2023-12-22T09:56:15;95289.69;;;8.04
76347;BMP280;73309;48.818;9.806;2023-12-22T09:58:43;95329.03;;;8.20
76347;BMP280;73309;48.818;9.806;2023-12-22T10:01:11;95318.56;;;8.26
76347;BMP280;73309;48.818;9.806;2023-12-22T10:03:37;95303.75;;;8.26
76347;BMP280;73309;48.818;9.806;2023-12-22T10:06:03;95314.19;;;8.14
76347;BMP280;73309;48.818;9.806;2023-12-22T10:08:29;95299.16;;;8.28
76347;BMP280;73309;48.818;9.806;2023-12-22T10:10:56;95314.47;;;8.27
76347;BMP280;73309;48.818;9.806;2023-12-22T10:13:21;95306.31;;;8.29
76347;BMP280;73309;48.818;9.806;2023-12-22T10:15:47;95304.00;;;8.28
76347;BMP280;73309;48.818;9.806;2023-12-22T10:18:14;95307.31;;;8.26
76347;BMP280;73309;48.818;9.806;2023-12-22T10:20:40;95286.91;;;8.26
76347;BMP280;73309;48.818;9.806;2023-12-22T10:23:07;95285.88;;;8.23
76347;BMP280;73309;48.818;9.806;2023-12-22T10:25:33;95295.59;;;8.22
76347;BMP280;73309;48.818;9.806;2023-12-22T10:27:58;95288.69;;;8.23
76347;BMP280;73309;48.818;9.806;2023-12-22T10:30:24;95288.13;;;8.19
76347;BMP280;73309;48.818;9.806;2023-12-22T10:32:50;95289.97;;;8.22
76347;BMP280;73309;48.818;9.806;2023-12-22T10:35:17;95294.03;;;8.21
76347;BMP280;73309;48.818;9.806;2023-12-22T10:37:42;95286.88;;;8.20
76347;BMP280;73309;48.818;9.806;2023-12-22T10:40:09;95294.81;;;8.22
76347;BMP280;73309;48.818;9.806;2023-12-22T10:42:34;95291.47;;;8.18
76347;BMP280;73309;48.818;9.806;2023-12-22T10:45:00;95281.28;;;8.20
76347;BMP280;73309;48.818;9.806;2023-12-22T10:47:26;95273.31;;;8.19
76347;BMP280;73309;48.818;9.806;2023-12-22T10:49:53;95281.00;;;8.24
76347;BMP280;73309;48.818;9.806;2023-12-22T10:52:19;95272.84;;;8.20
76347;BMP280;73309;48.818;9.806;2023-12-22T10:54:45;95260.31;;;8.21
76347;BMP280;73309;48.818;9.806;2023-12-22T10:57:10;95251.38;;;8.23
76347;BMP280;73309;48.818;9.806;2023-12-22T10:59:40;95242.44;;;8.24
76347;BMP280;73309;48.818;9.806;2023-12-22T11:02:12;95245.53;;;8.21
76347;BMP280;73309;48.818;9.806;2023-12-22T11:04:40;95246.81;;;8.20
76347;BMP280;73309;48.818;9.806;2023-12-22T11:07:09;95233.50;;;8.20
76347;BMP280;73309;48.818;9.806;2023-12-22T11:09:37;95248.31;;;8.10
76347;BMP280;73309;48.818;9.806;2023-12-22T11:12:05;95226.38;;;8.14
76347;BMP280;73309;48.818;9.806;2023-12-22T11:14:32;95231.44;;;8.15
76347;BMP280;73309;48.818;9.806;2023-12-22T11:16:59;95219.72;;;8.17
76347;BMP280;73309;48.818;9.806;2023-12-22T11:19:26;95240.91;;;8.18
76347;BMP280;73309;48.818;9.806;2023-12-22T11:21:55;95215.94;;;7.81
76347;BMP280;73309;48.818;9.806;2023-12-22T11:24:21;95201.63;;;7.90
76347;BMP280;73309;48.818;9.806;2023-12-22T11:26:49;95234.06;;;7.97
76347;BMP280;73309;48.818;9.806;2023-12-22T11:29:17;95213.09;;;7.92
76347;BMP280;73309;48.818;9.806;2023-12-22T11:31:44;95203.91;;;8.03
76347;BMP280;73309;48.818;9.806;2023-12-22T11:34:11;95210.03;;;8.01
76347;BMP280;73309;48.818;9.806;2023-12-22T11:36:38;95214.41;;;7.97
76347;BMP280;73309;48.818;9.806;2023-12-22T11:39:03;95190.88;;;8.05
76347;BMP280;73309;48.818;9.806;2023-12-22T11:41:30;95176.59;;;7.98
76347;BMP280;73309;48.818;9.806;2023-12-22T11:43:59;95178.38;;;8.01
76347;BMP280;73309;48.818;9.806;2023-12-22T11:46:25;95167.94;;;7.90
76347;BMP280;73309;48.818;9.806;2023-12-22T11:48:52;95191.91;;;8.02
76347;BMP280;73309;48.818;9.806;2023-12-22T11:51:18;95160.31;;;7.80
76347;BMP280;73309;48.818;9.806;2023-12-22T11:53:44;95128.41;;;7.72
76347;BMP280;73309;48.818;9.806;2023-12-22T11:56:11;95168.44;;;8.05
76347;BMP280;73309;48.818;9.806;2023-12-22T11:58:37;95176.31;;;8.07
76347;BMP280;73309;48.818;9.806;2023-12-22T12:01:06;95168.94;;;7.98
76347;BMP280;73309;48.818;9.806;2023-12-22T12:03:31;95142.66;;;8.01
76347;BMP280;73309;48.818;9.806;2023-12-22T12:06:10;95113.34;;;7.86
76347;BMP280;73309;48.818;9.806;2023-12-22T12:08:36;95128.59;;;8.01
76347;BMP280;73309;48.818;9.806;2023-12-22T12:11:01;95118.63;;;8.06
76347;BMP280;73309;48.818;9.806;2023-12-22T12:13:27;95135.75;;;8.08
76347;BMP280;73309;48.818;9.806;2023-12-22T12:15:55;95107.94;;;7.99
76347;BMP280;73309;48.818;9.806;2023-12-22T12:18:23;95121.94;;;8.04
76347;BMP280;73309;48.818;9.806;2023-12-22T12:20:48;95126.81;;;8.04
76347;BMP280;73309;48.818;9.806;2023-12-22T12:23:14;95124.25;;;8.06
76347;BMP280;73309;48.818;9.806;2023-12-22T12:25:40;95084.22;;;7.94
76347;BMP280;73309;48.818;9.806;2023-12-22T12:28:06;95115.81;;;8.11
76347;BMP280;73309;48.818;9.806;2023-12-22T12:30:33;95126.00;;;8.14
76347;BMP280;73309;48.818;9.806;2023-12-22T12:32:59;95128.06;;;8.14
76347;BMP280;73309;48.818;9.806;2023-12-22T12:35:32;95129.63;;;8.04
76347;BMP280;73309;48.818;9.806;2023-12-22T12:37:59;95118.63;;;8.06
76347;BMP280;73309;48.818;9.806;2023-12-22T12:40:24;95091.31;;;8.06
76347;BMP280;73309;48.818;9.806;2023-12-22T12:42:52;95094.88;;;8.07
76347;BMP280;73309;48.818;9.806;2023-12-22T12:45:22;95082.88;;;8.06
76347;BMP280;73309;48.818;9.806;2023-12-22T12:47:54;95083.34;;;8.16
76347;BMP280;73309;48.818;9.806;2023-12-22T12:50:21;95076.97;;;8.15
76347;BMP280;73309;48.818;9.806;2023-12-22T12:52:48;95093.81;;;8.15
76347;BMP280;73309;48.818;9.806;2023-12-22T12:55:14;95093.53;;;8.19
76347;BMP280;73309;48.818;9.806;2023-12-22T12:57:39;95076.97;;;8.21
76347;BMP280;73309;48.818;9.806;2023-12-22T13:00:06;95103.53;;;8.20
76347;BMP280;73309;48.818;9.806;2023-12-22T13:02:35;95036.75;;;7.85
76347;BMP280;73309;48.818;9.806;2023-12-22T13:05:00;95085.38;;;8.15
76347;BMP280;73309;48.818;9.806;2023-12-22T13:07:26;95071.59;;;8.17
76347;BMP280;73309;48.818;9.806;2023-12-22T13:09:53;95093.53;;;8.19
76347;BMP280;73309;48.818;9.806;2023-12-22T13:12:18;95095.13;;;8.20
76347;BMP280;73309;48.818;9.806;2023-12-22T13:14:43;95110.16;;;8.17
76347;BMP280;73309;48.818;9.806;2023-12-22T13:17:09;95088.75;;;8.14
76347;BMP280;73309;48.818;9.806;2023-12-22T13:19:34;95076.25;;;7.98
76347;BMP280;73309;48.818;9.806;2023-12-22T13:22:00;95101.47;;;8.20
76347;BMP280;73309;48.818;9.806;2023-12-22T13:24:25;95093.84;;;8.21
76347;BMP280;73309;48.818;9.806;2023-12-22T13:27:00;95102.75;;;8.19
76347;BMP280;73309;48.818;9.806;2023-12-22T13:29:25;95095.88;;;8.20
76347;BMP280;73309;48.818;9.806;2023-12-22T13:31:51;95092.28;;;8.14
76347;BMP280;73309;48.818;9.806;2023-12-22T13:34:16;95115.25;;;8.18
76347;BMP280;73309;48.818;9.806;2023-12-22T13:36:42;95092.56;;;8.16
76347;BMP280;73309;48.818;9.806;2023-12-22T13:39:08;95092.78;;;8.18
76347;BMP280;73309;48.818;9.806;2023-12-22T13:41:34;95093.53;;;8.19
76347;BMP280;73309;48.818;9.806;2023-12-22T13:44:04;95082.84;;;8.17
76347;BMP280;73309;48.818;9.806;2023-12-22T13:46:29;95085.88;;;8.19
76347;BMP280;73309;48.818;9.806;2023-12-22T13:48:55;95087.16;;;8.18
76347;BMP280;73309;48.818;9.806;2023-12-22T13:51:21;95089.97;;;8.18
76347;BMP280;73309;48.818;9.806;2023-12-22T13:53:47;95087.91;;;8.19
76347;BMP280;73309;48.818;9.806;2023-12-22T13:56:12;95092.78;;;8.18
76347;BMP280;73309;48.818;9.806;2023-12-22T13:58:43;95092.00;;;8.18
76347;BMP280;73309;48.818;9.806;2023-12-22T14:01:14;95084.88;;;8.17
76347;BMP280;73309;48.818;9.806;2023-12-22T14:03:39;95084.38;;;8.18
76347;BMP280;73309;48.818;9.806;2023-12-22T14:06:05;95066.00;;;8.17
76347;BMP280;73309;48.818;9.806;2023-12-22T14:08:30;95080.03;;;8.17
76347;BMP280;73309;48.818;9.806;2023-12-22T14:10:55;95086.94;;;8.16
76347;BMP280;73309;48.818;9.806;2023-12-22T14:13:21;95079.25;;;8.17